createdAt,value
2023-01-27T00:02:55.156Z,11.00
2023-01-27T00:06:01.376Z,10.27
2023-01-27T00:09:06.008Z,13.10
2023-01-27T00:12:39.190Z,11.60
2023-01-27T00:15:43.986Z,12.38
2023-01-27T00:18:48.813Z,13.50
2023-01-27T00:22:12.132Z,11.57
2023-01-27T00:25:17.711Z,11.88
2023-01-27T00:28:25.687Z,9.18
2023-01-27T00:31:48.688Z,10.05
2023-01-27T00:34:53.910Z,6.25
2023-01-27T00:37:58.424Z,14.38
2023-01-27T00:41:15.411Z,8.38
2023-01-27T00:44:20.179Z,7.60
2023-01-27T00:47:24.848Z,10.45
2023-01-27T00:50:29.774Z,11.43
2023-01-27T00:53:34.468Z,11.27
2023-01-27T00:56:39.593Z,8.38
2023-01-27T00:59:44.529Z,13.57
2023-01-27T01:02:49.076Z,10.75
2023-01-27T01:05:53.933Z,12.02
2023-01-27T01:08:59.643Z,8.88
2023-01-27T01:12:04.628Z,12.85
2023-01-27T01:15:10.111Z,13.38
2023-01-27T01:18:15.916Z,10.43
2023-01-27T01:21:20.792Z,8.82
2023-01-27T01:24:26.040Z,9.80
2023-01-27T01:27:30.713Z,13.18
2023-01-27T01:30:36.875Z,11.43
2023-01-27T01:33:43.656Z,10.57
2023-01-27T01:36:48.693Z,9.80
2023-01-27T01:39:53.639Z,17.35
2023-01-27T01:43:01.197Z,14.82
2023-01-27T01:46:10.066Z,17.33
2023-01-27T01:49:16.583Z,16.77
2023-01-27T01:52:21.492Z,13.25
2023-01-27T01:55:26.213Z,11.45
2023-01-27T01:58:32.896Z,13.55
2023-01-27T02:01:37.494Z,13.57
2023-01-27T02:04:48.906Z,13.70
2023-01-27T02:08:07.189Z,13.57
2023-01-27T02:11:12.565Z,18.90
2023-01-27T02:14:18.136Z,21.55
2023-01-27T02:17:22.901Z,13.75
2023-01-27T02:20:46.453Z,13.07
2023-01-27T02:24:01.012Z,16.20
2023-01-27T02:27:06.147Z,15.25
2023-01-27T02:30:11.552Z,18.13
2023-01-27T02:33:16.683Z,14.90
2023-01-27T02:36:22.301Z,25.60
2023-01-27T02:39:35.107Z,17.30
2023-01-27T02:42:40.004Z,19.58
2023-01-27T02:45:49.349Z,22.17
2023-01-27T02:48:54.859Z,26.55
2023-01-27T02:51:59.646Z,22.67
2023-01-27T02:55:06.889Z,26.85
2023-01-27T02:58:11.322Z,24.45
2023-01-27T03:01:25.693Z,23.75
2023-01-27T03:04:30.601Z,28.80
2023-01-27T03:07:36.367Z,26.15
2023-01-27T03:10:48.166Z,30.15
2023-01-27T03:13:54.771Z,23.77
2023-01-27T03:17:18.183Z,23.38
2023-01-27T03:20:23.497Z,26.33
2023-01-27T03:23:28.118Z,29.65
2023-01-27T03:26:32.865Z,29.58
2023-01-27T03:29:55.840Z,22.15
2023-01-27T03:33:03.306Z,24.20
2023-01-27T03:36:45.015Z,21.02
2023-01-27T03:40:08.372Z,18.83
2023-01-27T03:43:31.267Z,19.30
2023-01-27T03:46:36.004Z,20.08
2023-01-27T04:11:08.096Z,15.70
2023-01-27T04:14:13.332Z,14.57
2023-01-27T04:17:19.579Z,16.52
2023-01-27T04:20:24.015Z,17.35
2023-01-27T04:23:28.712Z,16.85
2023-01-27T04:26:34.480Z,13.88
2023-01-27T04:29:41.571Z,16.05
2023-01-27T04:32:46.500Z,15.68
2023-01-27T04:35:51.552Z,15.05
2023-01-27T04:38:56.040Z,16.30
2023-01-27T04:42:00.469Z,13.80
2023-01-27T04:45:08.221Z,14.07
2023-01-27T04:48:12.663Z,12.70
2023-01-27T04:51:17.456Z,14.45
2023-01-27T04:54:22.360Z,11.10
2023-01-27T04:57:27.997Z,13.50
2023-01-27T05:00:32.894Z,11.82
2023-01-27T05:03:37.604Z,11.88
2023-01-27T05:06:42.627Z,9.30
2023-01-27T05:09:47.649Z,11.20
2023-01-27T05:12:52.557Z,9.88
2023-01-27T05:16:15.793Z,11.63
2023-01-27T05:19:20.413Z,12.32
2023-01-27T05:22:25.105Z,8.60
2023-01-27T05:25:29.720Z,8.82
2023-01-27T05:28:35.995Z,9.07
2023-01-27T05:31:40.931Z,10.02
2023-01-27T05:34:45.564Z,8.57
2023-01-27T05:37:50.905Z,8.15
2023-01-27T05:40:58.241Z,9.90
2023-01-27T05:44:03.522Z,9.90
2023-01-27T05:47:08.002Z,9.25
2023-01-27T05:50:12.701Z,9.80
2023-01-27T05:53:18.657Z,9.55
2023-01-27T05:56:24.159Z,8.80
2023-01-27T05:59:28.852Z,8.60
2023-01-27T06:02:33.239Z,7.90
2023-01-27T06:05:37.561Z,9.63
2023-01-27T06:08:43.248Z,8.05
2023-01-27T06:11:48.359Z,9.65
2023-01-27T06:14:55.409Z,8.68
2023-01-27T06:18:00.516Z,7.75
2023-01-27T06:21:08.147Z,8.10
2023-01-27T06:24:13.851Z,9.68
2023-01-27T06:27:18.682Z,8.80
2023-01-27T06:30:24.232Z,10.65
2023-01-27T06:33:28.666Z,8.70
2023-01-27T06:36:33.564Z,7.07
2023-01-27T06:39:38.958Z,8.07
2023-01-27T06:42:44.599Z,6.97
2023-01-27T06:45:50.776Z,8.25
2023-01-27T06:48:55.619Z,8.05
2023-01-27T06:52:00.453Z,6.55
2023-01-27T06:55:05.654Z,7.95
2023-01-27T06:58:12.079Z,6.05
2023-01-27T07:01:17.548Z,6.80
2023-01-27T07:04:22.642Z,7.07
2023-01-27T07:07:27.398Z,6.43
2023-01-27T07:10:32.281Z,7.63
2023-01-27T07:13:37.117Z,6.57
2023-01-27T07:16:41.892Z,7.03
2023-01-27T07:19:46.919Z,7.88
2023-01-27T07:22:51.910Z,7.50
2023-01-27T07:25:57.092Z,8.95
2023-01-27T07:29:02.746Z,6.63
2023-01-27T07:32:08.111Z,7.55
2023-01-27T07:35:12.893Z,6.43
2023-01-27T07:38:17.831Z,7.95
2023-01-27T07:41:23.175Z,7.75
2023-01-27T07:44:28.831Z,5.88
2023-01-27T07:47:33.550Z,7.25
2023-01-27T07:50:41.780Z,7.60
2023-01-27T07:53:46.893Z,6.93
2023-01-27T07:56:51.841Z,7.85
2023-01-27T07:59:56.786Z,8.20
2023-01-27T08:03:03.187Z,6.72
2023-01-27T08:06:12.978Z,5.65
2023-01-27T08:09:17.677Z,6.20
2023-01-27T08:12:22.351Z,6.55
2023-01-27T08:15:27.247Z,6.82
2023-01-27T08:18:33.664Z,5.82
2023-01-27T08:21:38.671Z,5.55
2023-01-27T08:24:43.349Z,6.05
2023-01-27T08:27:53.471Z,7.25
2023-01-27T08:31:14.419Z,6.18
2023-01-27T08:34:19.255Z,6.85
2023-01-27T08:37:24.087Z,4.65
2023-01-27T08:40:29.031Z,5.05
2023-01-27T08:43:34.844Z,6.40
2023-01-27T08:46:39.690Z,5.65
2023-01-27T08:49:44.546Z,7.13
2023-01-27T08:52:49.231Z,4.90
2023-01-27T08:55:57.927Z,7.50
2023-01-27T08:59:02.632Z,5.55
2023-01-27T09:02:07.597Z,7.28
2023-01-27T09:05:12.611Z,6.35
2023-01-27T09:08:17.439Z,8.32
2023-01-27T09:11:22.281Z,6.35
2023-01-27T09:14:26.964Z,6.28
2023-01-27T09:17:32.031Z,5.75
2023-01-27T09:20:39.690Z,5.82
2023-01-27T09:23:44.393Z,7.60
2023-01-27T09:26:49.574Z,7.07
2023-01-27T09:29:54.155Z,7.53
2023-01-27T09:33:00.486Z,6.50
2023-01-27T09:36:14.750Z,6.30
2023-01-27T09:39:20.225Z,6.18
2023-01-27T09:42:59.786Z,8.02
2023-01-27T09:47:01.916Z,9.25
2023-01-27T09:50:15.651Z,6.80
2023-01-27T09:54:12.041Z,5.07
2023-01-27T09:57:34.738Z,7.05
2023-01-27T10:00:57.271Z,7.68
2023-01-27T10:04:22.554Z,7.32
2023-01-27T10:07:45.399Z,8.02
2023-01-27T10:11:28.453Z,7.68
2023-01-27T10:15:50.290Z,7.68
2023-01-27T10:19:30.860Z,9.57
2023-01-27T10:22:51.817Z,7.20
2023-01-27T10:26:29.802Z,6.85
2023-01-27T10:29:47.188Z,7.95
2023-01-27T10:33:19.210Z,6.35
2023-01-27T10:36:30.510Z,7.57
2023-01-27T10:39:49.431Z,6.63
2023-01-27T10:43:29.222Z,7.13
2023-01-27T10:46:49.078Z,8.27
2023-01-27T10:50:13.024Z,8.10
2023-01-27T10:53:32.085Z,8.45
2023-01-27T10:57:02.701Z,5.93
2023-01-27T11:03:54.405Z,9.70
2023-01-27T11:07:00.502Z,6.25
2023-01-27T11:10:16.082Z,6.05
2023-01-27T11:13:20.539Z,6.95
2023-01-27T11:16:28.172Z,6.35
2023-01-27T11:19:48.805Z,6.20
2023-01-27T11:23:27.654Z,8.30
2023-01-27T11:26:48.608Z,6.78
2023-01-27T11:30:02.568Z,7.60
2023-01-27T11:33:13.464Z,6.22
2023-01-27T11:36:18.122Z,6.10
2023-01-27T11:39:22.839Z,6.10
2023-01-27T11:42:35.110Z,6.78
2023-01-27T11:45:39.637Z,5.38
2023-01-27T11:48:49.699Z,6.72
2023-01-27T11:52:05.900Z,7.25
2023-01-27T11:55:13.991Z,6.78
2023-01-27T11:58:45.546Z,7.80
2023-01-27T12:02:08.704Z,7.03
2023-01-27T12:05:21.690Z,6.78
2023-01-27T12:08:47.013Z,5.72
2023-01-27T12:12:14.083Z,8.48
2023-01-27T12:15:19.500Z,5.80
2023-01-27T12:18:23.999Z,5.70
2023-01-27T12:21:50.021Z,6.10
2023-01-27T12:25:00.240Z,5.68
2023-01-27T12:28:05.956Z,5.20
2023-01-27T12:31:29.385Z,5.97
2023-01-27T12:34:36.918Z,5.63
2023-01-27T12:37:41.725Z,7.32
2023-01-27T12:40:48.226Z,5.90
2023-01-27T12:44:15.305Z,7.07
2023-01-27T12:47:28.542Z,8.40
2023-01-27T12:50:37.347Z,7.25
2023-01-27T12:53:44.244Z,8.45
2023-01-27T12:56:54.852Z,6.97
2023-01-27T12:59:59.402Z,6.25
2023-01-27T13:03:11.122Z,6.80
2023-01-27T13:06:19.041Z,7.95
2023-01-27T13:09:45.449Z,6.22
2023-01-27T13:12:58.566Z,5.65
2023-01-27T13:16:19.082Z,7.63
2023-01-27T13:19:42.533Z,7.38
2023-01-27T13:23:04.948Z,7.67
2023-01-27T13:26:11.904Z,6.05
2023-01-27T13:29:24.067Z,7.50
2023-01-27T13:32:33.438Z,7.78
2023-01-27T13:35:52.069Z,9.02
2023-01-27T13:39:04.904Z,7.32
2023-01-27T13:42:40.678Z,8.10
2023-01-27T13:46:16.250Z,7.45
2023-01-27T13:49:40.125Z,6.53
2023-01-27T13:52:49.725Z,6.88
2023-01-27T13:56:07.887Z,7.22
2023-01-27T13:59:43.322Z,9.00
2023-01-27T14:03:51.139Z,8.32
2023-01-27T14:07:43.021Z,8.55
2023-01-27T14:11:12.507Z,7.30
2023-01-27T14:14:49.065Z,7.13
2023-01-27T14:18:17.271Z,11.00
2023-01-27T14:21:43.194Z,9.52
2023-01-27T14:24:55.507Z,9.90
2023-01-27T14:28:22.940Z,11.10
2023-01-27T14:32:06.488Z,10.07
2023-01-27T14:35:41.823Z,8.65
2023-01-27T14:39:18.895Z,9.18
2023-01-27T14:42:38.680Z,9.50
2023-01-27T14:46:15.163Z,10.35
2023-01-27T14:49:34.792Z,9.30
2023-01-27T14:53:31.645Z,12.07
2023-01-27T14:57:11.792Z,10.45
2023-01-27T15:00:46.398Z,9.43
2023-01-27T15:04:10.249Z,10.00
2023-01-27T15:07:30.629Z,8.97
2023-01-27T15:10:42.049Z,10.70
2023-01-27T15:14:12.642Z,8.30
2023-01-27T15:17:53.110Z,7.78
2023-01-27T15:21:39.546Z,8.05
2023-01-27T15:25:37.818Z,7.78
2023-01-27T15:28:43.719Z,9.23
2023-01-27T15:32:10.998Z,8.55
2023-01-27T15:35:26.405Z,8.13
2023-01-27T15:42:00.995Z,7.22
2023-01-27T15:45:25.682Z,8.48
2023-01-27T15:51:39.383Z,8.07
2023-01-27T15:54:47.622Z,6.82
2023-01-27T15:58:39.356Z,7.82
2023-01-27T16:01:44.411Z,7.13
2023-01-27T16:05:44.537Z,7.65
2023-01-27T16:09:01.328Z,8.85
2023-01-27T16:12:48.496Z,7.97
2023-01-27T16:16:18.047Z,6.15
2023-01-27T16:19:38.744Z,7.32
2023-01-27T16:22:48.278Z,7.68
2023-01-27T16:26:17.040Z,7.00
2023-01-27T16:29:33.980Z,6.20
2023-01-27T16:32:45.553Z,7.18
2023-01-27T16:36:05.123Z,7.55
2023-01-27T16:39:18.726Z,8.02
2023-01-27T16:42:32.997Z,7.82
2023-01-27T16:45:54.644Z,7.97
2023-01-27T16:49:04.742Z,6.60
2023-01-27T16:52:41.611Z,7.10
2023-01-27T16:56:22.057Z,7.35
2023-01-27T16:59:29.370Z,7.55
2023-01-27T17:02:35.842Z,7.90
2023-01-27T17:05:42.895Z,8.00
2023-01-27T17:08:49.603Z,6.18
2023-01-27T17:11:55.715Z,8.32
2023-01-27T17:15:09.461Z,8.20
2023-01-27T17:18:15.076Z,7.68
2023-01-27T17:21:42.027Z,7.60
2023-01-27T17:24:52.993Z,7.50
2023-01-27T17:28:02.579Z,7.32
2023-01-27T17:31:08.785Z,12.70
2023-01-27T17:34:21.657Z,7.63
2023-01-27T17:37:26.957Z,6.38
2023-01-27T17:40:39.560Z,6.53
2023-01-27T17:43:44.903Z,6.95
2023-01-27T17:46:50.210Z,5.75
2023-01-27T17:49:54.971Z,7.45
2023-01-27T17:53:00.265Z,6.72
2023-01-27T17:56:21.820Z,7.82
2023-01-27T17:59:29.696Z,6.43
2023-01-27T18:02:48.850Z,5.95
2023-01-27T18:05:54.771Z,6.40
2023-01-27T18:09:15.376Z,6.28
2023-01-27T18:12:36.645Z,7.03
2023-01-27T18:15:48.031Z,7.93
2023-01-27T18:18:52.808Z,8.80
2023-01-27T18:22:17.191Z,6.70
2023-01-27T18:28:27.469Z,6.15
2023-01-27T18:31:43.870Z,11.02
2023-01-27T18:34:55.866Z,9.27
2023-01-27T18:38:25.325Z,10.27
2023-01-27T18:41:32.894Z,10.90
2023-01-27T18:44:37.874Z,9.98
2023-01-27T18:47:42.882Z,10.73
2023-01-27T18:50:47.876Z,10.70
2023-01-27T18:53:52.739Z,11.35
2023-01-27T18:56:57.527Z,11.32
2023-01-27T19:00:02.724Z,11.48
2023-01-27T19:03:15.853Z,10.95
2023-01-27T19:06:20.477Z,10.82
2023-01-27T19:09:25.106Z,11.48
2023-01-27T19:12:29.992Z,10.75
2023-01-27T19:15:39.861Z,12.02
2023-01-27T19:18:45.564Z,11.55
2023-01-27T19:21:50.349Z,9.85
2023-01-27T19:24:55.190Z,10.70
2023-01-27T19:28:05.569Z,9.68
2023-01-27T19:31:10.657Z,9.43
2023-01-27T19:34:15.568Z,7.78
2023-01-27T19:37:21.355Z,7.45
2023-01-27T19:40:29.372Z,8.30
2023-01-27T19:43:34.205Z,10.35
2023-01-27T19:46:41.249Z,9.95
2023-01-27T19:49:45.946Z,9.43
2023-01-27T19:52:51.284Z,10.27
2023-01-27T19:55:58.283Z,9.35
2023-01-27T19:59:04.244Z,10.13
2023-01-27T20:02:13.549Z,10.00
2023-01-27T20:05:19.096Z,9.98
2023-01-27T20:08:23.509Z,8.23
2023-01-27T20:11:46.463Z,8.52
2023-01-27T20:14:51.938Z,9.68
2023-01-27T20:17:56.751Z,7.57
2023-01-27T20:21:01.473Z,9.55
2023-01-27T20:24:06.909Z,7.63
2023-01-27T20:27:11.815Z,7.20
2023-01-27T20:30:23.838Z,7.97
2023-01-27T20:33:28.527Z,8.55
2023-01-27T20:36:35.435Z,9.30
2023-01-27T20:39:40.299Z,9.07
2023-01-27T20:42:45.468Z,10.90
2023-01-27T20:45:50.379Z,8.70
2023-01-27T20:48:56.393Z,8.93
2023-01-27T20:52:01.088Z,7.20
2023-01-27T20:55:06.797Z,7.25
2023-01-27T20:58:11.418Z,7.25
2023-01-27T21:01:22.931Z,8.15
2023-01-27T21:04:27.820Z,7.18
2023-01-27T21:07:32.683Z,8.48
2023-01-27T21:10:37.789Z,13.55
2023-01-27T21:13:42.665Z,9.57
2023-01-27T21:16:47.496Z,10.20
2023-01-27T21:19:52.095Z,10.18
2023-01-27T21:22:56.917Z,8.23
2023-01-27T21:26:10.564Z,8.88
2023-01-27T21:29:15.153Z,8.67
2023-01-27T21:32:19.902Z,7.93
2023-01-27T21:35:24.795Z,7.05
2023-01-27T21:38:29.843Z,7.18
2023-01-27T21:41:52.848Z,7.07
2023-01-27T21:45:17.029Z,7.63
2023-01-27T21:57:36.279Z,7.43
2023-01-27T22:00:41.180Z,7.38
2023-01-27T22:03:46.537Z,6.78
2023-01-27T22:06:51.591Z,7.43
2023-01-27T22:09:56.593Z,6.95
2023-01-27T22:13:04.396Z,7.53
2023-01-27T22:16:14.636Z,7.18
2023-01-27T22:19:19.806Z,8.52
2023-01-27T22:22:24.403Z,7.25
2023-01-27T22:25:29.306Z,9.02
2023-01-27T22:28:34.090Z,7.70
2023-01-27T22:31:41.882Z,8.00
2023-01-27T22:34:47.935Z,6.70
2023-01-27T22:37:53.238Z,6.93
2023-01-27T22:40:59.567Z,8.90
2023-01-27T22:44:04.599Z,7.50
2023-01-27T22:47:09.020Z,8.45
2023-01-27T22:50:14.025Z,8.10
2023-01-27T22:53:18.952Z,7.63
2023-01-27T22:56:23.923Z,7.45
2023-01-27T22:59:29.067Z,6.43
2023-01-27T23:02:35.909Z,7.22
2023-01-27T23:05:40.455Z,7.68
2023-01-27T23:08:45.648Z,8.32
2023-01-27T23:11:50.201Z,7.65
2023-01-27T23:14:55.062Z,7.32
2023-01-27T23:18:00.152Z,8.35
2023-01-27T23:21:08.064Z,7.93
2023-01-27T23:24:14.302Z,6.50
2023-01-27T23:27:19.723Z,8.73
2023-01-27T23:30:24.412Z,9.73
2023-01-27T23:33:35.881Z,9.30
2023-01-27T23:36:40.644Z,9.27
2023-01-27T23:39:48.801Z,7.85
2023-01-27T23:42:53.627Z,8.90
2023-01-27T23:45:58.924Z,8.70
2023-01-27T23:49:03.444Z,8.85
2023-01-27T23:52:08.682Z,9.85
2023-01-27T23:55:14.173Z,8.27
2023-01-27T23:58:19.178Z,6.97
